Horace Cenac — WDG7714 — position and weather

sailwx.info

Track history (hours):
 
Tides and Currents Weather Stations Pressure Air Temp Water Temp Dewpoint Dewpoint Depression Visibility Wind Speed Wind Dir Waves Ship Positions

Horace Cenac

Owner: Cenac Towing Company LLC, Houma, LA. More information available from US FCC via Universal Licensing System and Coast Guard Vessel Documentation Center.

Last reported at 2017-Oct-20 07:45 UTC. Time now 2017-Oct-20 18:30 UTC.
Position N 27°44' W 082°32'.

Length 91 m; draft 4 m.

Type: Ship (hazmat cat B). MMSI: 367570080.

Date/timePositionNaut miles runAvg speedWind from/ knotsBaromVisibWave heightAir tempDewpointWater temp
2017-Oct-20 07:45N 27°44' W 082°32'2 8.3
2017-Oct-20 07:28N 27°47' W 082°31'4 8.3
2017-Oct-20 07:00N 27°48' W 082°28'4 8.2
2017-Oct-20 06:30N 27°52' W 082°27'3 5.6
2017-Oct-20 06:00N 27°55' W 082°27'0 0.0
2017-Oct-20 05:28N 27°55' W 082°27'0 0.1
2017-Oct-20 05:00N 27°55' W 082°27'0 0.0
2017-Oct-20 04:30N 27°55' W 082°27'0 0.0
2017-Oct-20 04:00N 27°55' W 082°27'0 0.0
2017-Oct-20 03:30N 27°55' W 082°27'0 0.0
2017-Oct-20 03:00N 27°55' W 082°27'0 0.0
2017-Oct-20 02:30N 27°55' W 082°27'0 0.0
2017-Oct-20 02:00N 27°55' W 082°27'0 0.0
2017-Oct-20 01:30N 27°55' W 082°27'0 0.0
2017-Oct-20 01:00N 27°55' W 082°27'0 0.0
2017-Oct-20 00:30N 27°55' W 082°27'0 0.0
2017-Oct-20 00:00N 27°55' W 082°27'0 0.0
2017-Oct-19 23:30N 27°55' W 082°27'0 0.0
2017-Oct-19 23:00N 27°55' W 082°27'0 0.0
2017-Oct-19 22:30N 27°55' W 082°27'0 0.0
2017-Oct-19 22:00N 27°55' W 082°27'0 0.0
2017-Oct-19 21:30N 27°55' W 082°27'0 0.0
2017-Oct-19 21:00N 27°55' W 082°27'0 0.0
2017-Oct-19 20:30N 27°55' W 082°27'0 0.0
2017-Oct-19 19:57N 27°55' W 082°27'0 0.0
2017-Oct-19 19:30N 27°55' W 082°27'0 0.0
2017-Oct-19 19:00N 27°55' W 082°27'0 0.0
2017-Oct-19 18:30N 27°55' W 082°27'0 0.0
2017-Oct-19 18:00N 27°55' W 082°27'0 0.1
2017-Oct-19 17:30N 27°55' W 082°27'2 4.0
2017-Oct-19 17:00N 27°53' W 082°26'4 8.5
2017-Oct-19 16:30N 27°49' W 082°27'4 8.4
2017-Oct-19 15:59N 27°47' W 082°31'  
2017-Oct-13 08:21N 29°50' W 093°57'0 0.0
2017-Oct-13 07:51N 29°50' W 093°57'0 0.0
2017-Oct-13 07:27N 29°50' W 093°57'7 4.2
2017-Oct-13 05:49N 29°44' W 093°53'166 5.7
2017-Oct-12 00:34N 29°24' W 090°44'0 8.6
2017-Oct-12 00:31N 29°25' W 090°44'4 8.8
2017-Oct-12 00:01N 29°29' W 090°43'4 8.1
2017-Oct-11 23:31N 29°33' W 090°42'1 2.4
2017-Oct-11 23:00N 29°34' W 090°43'0 0.5
2017-Oct-11 22:29N 29°34' W 090°44'0 0.0
2017-Oct-11 22:00N 29°34' W 090°44'0 0.4
2017-Oct-11 21:28N 29°34' W 090°43'0 0.0
2017-Oct-11 20:58N 29°34' W 090°43'0 0.0
2017-Oct-11 20:28N 29°34' W 090°43'0 0.0
2017-Oct-11 19:58N 29°34' W 090°43'0 0.0
2017-Oct-11 19:28N 29°34' W 090°43'0 0.0
2017-Oct-11 18:58N 29°34' W 090°43'0 0.0
2017-Oct-11 18:28N 29°34' W 090°43'0 0.0
2017-Oct-11 17:58N 29°34' W 090°43'0 0.0
2017-Oct-11 17:28N 29°34' W 090°43'0 0.0
2017-Oct-11 16:58N 29°34' W 090°43'0 0.0
2017-Oct-10 23:58N 29°34' W 090°43'0 0.0
2017-Oct-10 23:28N 29°34' W 090°43'0 0.0
2017-Oct-10 22:55N 29°34' W 090°43'0 0.0
2017-Oct-10 22:28N 29°34' W 090°43'0 0.0
2017-Oct-10 21:55N 29°34' W 090°43'0 0.0
2017-Oct-10 21:28N 29°34' W 090°43'0 0.0
2017-Oct-10 20:58N 29°34' W 090°43'0 0.0
2017-Oct-10 20:28N 29°34' W 090°43'0 0.0
2017-Oct-10 19:58N 29°34' W 090°43'0 0.0
2017-Oct-10 19:28N 29°34' W 090°43'0 0.0
2017-Oct-10 18:58N 29°34' W 090°43'0 0.0
2017-Oct-10 18:28N 29°34' W 090°43'0 0.0
2017-Oct-10 17:58N 29°34' W 090°43'0 0.0
2017-Oct-10 17:28N 29°34' W 090°43'0 0.0
2017-Oct-10 16:58N 29°34' W 090°43'0 0.0
2017-Oct-10 16:28N 29°34' W 090°43'0 0.0
2017-Oct-10 15:58N 29°34' W 090°43'0 0.0
2017-Oct-10 15:25N 29°34' W 090°43'0 0.0
2017-Oct-10 14:58N 29°34' W 090°43'0 0.0
2017-Oct-10 13:58N 29°34' W 090°43'0 0.0
2017-Oct-10 13:28N 29°34' W 090°43'0 0.0
2017-Oct-10 12:58N 29°34' W 090°43'0 0.0
2017-Oct-10 12:28N 29°34' W 090°43'0 0.0
2017-Oct-10 11:55N 29°34' W 090°43'0 0.0
2017-Oct-10 11:28N 29°34' W 090°43'0 0.0
2017-Oct-10 10:58N 29°34' W 090°43'0 0.0
2017-Oct-10 10:25N 29°34' W 090°43'0 0.0
2017-Oct-10 09:55N 29°34' W 090°43'0 0.0
2017-Oct-10 09:28N 29°34' W 090°43'0 0.0
2017-Oct-10 08:58N 29°34' W 090°43'0 0.0
2017-Oct-10 08:28N 29°34' W 090°43'0 0.0
2017-Oct-10 07:55N 29°34' W 090°43'  
Track history (hours):
 
Tides and Currents Weather Stations Pressure Air Temp Water Temp Dewpoint Dewpoint Depression Visibility Wind Speed Wind Dir Waves Ship Positions

Horace Cenac

Owner: Cenac Towing Company LLC, Houma, LA. More information available from US FCC via Universal Licensing System and Coast Guard Vessel Documentation Center.

Last reported at 2017-Oct-20 07:45 UTC. Time now 2017-Oct-20 18:30 UTC.
Position N 27°44' W 082°32'.

Length 91 m; draft 4 m.

Type: Ship (hazmat cat B). MMSI: 367570080.

Date/timePositionNaut miles runAvg speedWind from/ knotsBaromVisibWave heightAir tempDewpointWater temp
2017-Oct-20 07:45N 27°44' W 082°32'2 8.3
2017-Oct-20 07:28N 27°47' W 082°31'4 8.3
2017-Oct-20 07:00N 27°48' W 082°28'4 8.2
2017-Oct-20 06:30N 27°52' W 082°27'3 5.6
2017-Oct-20 06:00N 27°55' W 082°27'0 0.0
2017-Oct-20 05:28N 27°55' W 082°27'0 0.1
2017-Oct-20 05:00N 27°55' W 082°27'0 0.0
2017-Oct-20 04:30N 27°55' W 082°27'0 0.0
2017-Oct-20 04:00N 27°55' W 082°27'0 0.0
2017-Oct-20 03:30N 27°55' W 082°27'0 0.0
2017-Oct-20 03:00N 27°55' W 082°27'0 0.0
2017-Oct-20 02:30N 27°55' W 082°27'0 0.0
2017-Oct-20 02:00N 27°55' W 082°27'0 0.0
2017-Oct-20 01:30N 27°55' W 082°27'0 0.0
2017-Oct-20 01:00N 27°55' W 082°27'0 0.0
2017-Oct-20 00:30N 27°55' W 082°27'0 0.0
2017-Oct-20 00:00N 27°55' W 082°27'0 0.0
2017-Oct-19 23:30N 27°55' W 082°27'0 0.0
2017-Oct-19 23:00N 27°55' W 082°27'0 0.0
2017-Oct-19 22:30N 27°55' W 082°27'0 0.0
2017-Oct-19 22:00N 27°55' W 082°27'0 0.0
2017-Oct-19 21:30N 27°55' W 082°27'0 0.0
2017-Oct-19 21:00N 27°55' W 082°27'0 0.0
2017-Oct-19 20:30N 27°55' W 082°27'0 0.0
2017-Oct-19 19:57N 27°55' W 082°27'0 0.0
2017-Oct-19 19:30N 27°55' W 082°27'0 0.0
2017-Oct-19 19:00N 27°55' W 082°27'0 0.0
2017-Oct-19 18:30N 27°55' W 082°27'0 0.0
2017-Oct-19 18:00N 27°55' W 082°27'0 0.1
2017-Oct-19 17:30N 27°55' W 082°27'2 4.0
2017-Oct-19 17:00N 27°53' W 082°26'4 8.5
2017-Oct-19 16:30N 27°49' W 082°27'4 8.4
2017-Oct-19 15:59N 27°47' W 082°31'  
2017-Oct-13 08:21N 29°50' W 093°57'0 0.0
2017-Oct-13 07:51N 29°50' W 093°57'0 0.0
2017-Oct-13 07:27N 29°50' W 093°57'7 4.2
2017-Oct-13 05:49N 29°44' W 093°53'166 5.7
2017-Oct-12 00:34N 29°24' W 090°44'0 8.6
2017-Oct-12 00:31N 29°25' W 090°44'4 8.8
2017-Oct-12 00:01N 29°29' W 090°43'4 8.1
2017-Oct-11 23:31N 29°33' W 090°42'1 2.4
2017-Oct-11 23:00N 29°34' W 090°43'0 0.5
2017-Oct-11 22:29N 29°34' W 090°44'0 0.0
2017-Oct-11 22:00N 29°34' W 090°44'0 0.4
2017-Oct-11 21:28N 29°34' W 090°43'0 0.0
2017-Oct-11 20:58N 29°34' W 090°43'0 0.0
2017-Oct-11 20:28N 29°34' W 090°43'0 0.0
2017-Oct-11 19:58N 29°34' W 090°43'0 0.0
2017-Oct-11 19:28N 29°34' W 090°43'0 0.0
2017-Oct-11 18:58N 29°34' W 090°43'0 0.0
2017-Oct-11 18:28N 29°34' W 090°43'0 0.0
2017-Oct-11 17:58N 29°34' W 090°43'0 0.0
2017-Oct-11 17:28N 29°34' W 090°43'0 0.0
2017-Oct-11 16:58N 29°34' W 090°43'0 0.0
2017-Oct-10 23:58N 29°34' W 090°43'0 0.0
2017-Oct-10 23:28N 29°34' W 090°43'0 0.0
2017-Oct-10 22:55N 29°34' W 090°43'0 0.0
2017-Oct-10 22:28N 29°34' W 090°43'0 0.0
2017-Oct-10 21:55N 29°34' W 090°43'0 0.0
2017-Oct-10 21:28N 29°34' W 090°43'0 0.0
2017-Oct-10 20:58N 29°34' W 090°43'0 0.0
2017-Oct-10 20:28N 29°34' W 090°43'0 0.0
2017-Oct-10 19:58N 29°34' W 090°43'0 0.0
2017-Oct-10 19:28N 29°34' W 090°43'0 0.0
2017-Oct-10 18:58N 29°34' W 090°43'0 0.0
2017-Oct-10 18:28N 29°34' W 090°43'0 0.0
2017-Oct-10 17:58N 29°34' W 090°43'0 0.0
2017-Oct-10 17:28N 29°34' W 090°43'0 0.0
2017-Oct-10 16:58N 29°34' W 090°43'0 0.0
2017-Oct-10 16:28N 29°34' W 090°43'0 0.0
2017-Oct-10 15:58N 29°34' W 090°43'0 0.0
2017-Oct-10 15:25N 29°34' W 090°43'0 0.0
2017-Oct-10 14:58N 29°34' W 090°43'0 0.0
2017-Oct-10 13:58N 29°34' W 090°43'0 0.0
2017-Oct-10 13:28N 29°34' W 090°43'0 0.0
2017-Oct-10 12:58N 29°34' W 090°43'0 0.0
2017-Oct-10 12:28N 29°34' W 090°43'0 0.0
2017-Oct-10 11:55N 29°34' W 090°43'0 0.0
2017-Oct-10 11:28N 29°34' W 090°43'0 0.0
2017-Oct-10 10:58N 29°34' W 090°43'0 0.0
2017-Oct-10 10:25N 29°34' W 090°43'0 0.0
2017-Oct-10 09:55N 29°34' W 090°43'0 0.0
2017-Oct-10 09:28N 29°34' W 090°43'0 0.0
2017-Oct-10 08:58N 29°34' W 090°43'0 0.0
2017-Oct-10 08:28N 29°34' W 090°43'0 0.0
2017-Oct-10 07:55N 29°34' W 090°43'  

Dump ship's entire track history